Newmanstown, PA (17073)

7:24 AM EDT on September 02, 2015 (GMT -0400)
South Market Street | | Change Station
CLOSE
Current Station
Personal Weather Station
Location: Newmanstown, PA
Elevation: 614 ft
Nearby Weather Stations

Elev 614 ft 40.29 °N, 76.30 °W | Updated 2 seconds ago

Clear
Clear
65.9 °F
Feels Like 65.9 °F
N
0.0
Wind Variable Wind from East
Gusts 0.0 mph

Today
High -- | Low -- °F
--% Chance of Precip.
Yesterday
High -- | Low -- °F
Precip. -- in
6:33 AM 7:35 PM
Waning Gibbous, 81% visible
Pressure 30.06 in
Visibility 1.8 miles
Clouds Clear
Dew Point 65 °F
Humidity 97%
Rainfall 0.00 in
Snow Depth Not available.
UV 0 out of 12
Pollen 9.90 out of 12
Air Quality Not available.
Flu Activity Not available.
SPECI KLNS 021117Z 00000KT 1 3/4SM BR CLR 18/17 A3006 RMK AO2 T01830172
Pressure 30.06 in
Visibility 1.8 miles
Clouds Clear
Dew Point 65 °F
Humidity 97%
Rainfall 0.00 in
Snow Depth Not available.
UV 0 out of 12
Pollen 9.90 out of 12
Air Quality Not available.
Flu Activity Not available.
SPECI KLNS 021117Z 00000KT 1 3/4SM BR CLR 18/17 A3006 RMK AO2 T01830172

10-Day Weather Forecast

×

Almanac

Astronomy

Sep. 02, 2015 Rise Set
Actual Time
Civil Twilight
Nautical Twilight
Astronomical Twilight
Moon
Length of Visible Light
Length of Day
Tomorrow will be .
, % of the Moon is Illuminated

Today's Extremes

State Highs State Lows

Community

WunderPhotos

Upload Photos

1,851,736 photos uploaded!

WunderBlogs® & News

Nearby

Air Quality

  Air Quality AQ Index Pollutant
Not available.

Snow Depth

Station Depth Elevation

Earthquake Activity

City Distance Mag. Time & Date
Minimum magnitude displayed is 2.5.

Coastal Water Temperatures

Place Temperature

Stations

Nearby Weather Stations

Station Location Temp. Windchill Dew Point Humidity Wind Precip. Elev Updated Type